Time,TemperatureF,DewpointF,PressureIn,WindDirection,WindDirectionDegrees,WindSpeedMPH,WindSpeedGustMPH,Humidity,HourlyPrecipIn,Conditions,Clouds,dailyrainin,SoftwareType,DateUTC
2013-02-09 00:04:00,33.3,26.9,29.89,NW,315,9.4,-999.0,77,-99.99,,,0.00,Acu-Link.com,2013-02-09 05:04:00,
2013-02-09 00:20:00,33.1,26.7,29.89,WSW,247,6.3,-999.0,77,-99.99,,,0.00,Acu-Link.com,2013-02-09 05:20:00,
2013-02-09 00:37:00,32.7,26.3,29.89,WNW,292,8.3,-999.0,77,-99.99,,,0.00,Acu-Link.com,2013-02-09 05:37:00,
2013-02-09 00:52:00,32.7,26.3,29.89,West,270,7.3,-999.0,77,-99.99,,,0.00,Acu-Link.com,2013-02-09 05:52:00,
2013-02-09 01:08:00,32.5,26.4,29.88,NW,315,4.2,-999.0,78,-99.99,,,0.00,Acu-Link.com,2013-02-09 06:08:00,
2013-02-09 01:24:00,32.2,26.1,29.89,SSW,202,2.7,-999.0,78,-99.99,,,0.00,Acu-Link.com,2013-02-09 06:24:00,
2013-02-09 01:39:00,32.0,26.2,29.90,WNW,292,2.7,-999.0,79,-99.99,,,0.00,Acu-Link.com,2013-02-09 06:39:00,
2013-02-09 01:54:00,31.8,25.4,29.90,East,90,3.7,-999.0,77,-99.99,,,0.00,Acu-Link.com,2013-02-09 06:54:00,
2013-02-09 02:10:00,32.0,25.3,29.90,West,270,6.3,-999.0,76,-99.99,,,0.00,Acu-Link.com,2013-02-09 07:10:00,
2013-02-09 02:25:00,31.8,24.8,29.92,NW,315,13.5,-999.0,75,-99.99,,,0.00,Acu-Link.com,2013-02-09 07:25:00,
2013-02-09 02:40:00,31.6,25.2,29.91,East,90,7.8,-999.0,77,-99.99,,,0.00,Acu-Link.com,2013-02-09 07:40:00,
2013-02-09 02:55:00,31.6,25.2,29.93,ESE,112,2.7,-999.0,77,-99.99,,,0.00,Acu-Link.com,2013-02-09 07:55:00,
2013-02-09 03:11:00,31.6,25.2,29.92,East,90,4.7,-999.0,77,-99.99,,,0.00,Acu-Link.com,2013-02-09 08:11:00,
2013-02-09 03:26:00,31.3,25.3,29.93,ESE,112,2.7,-999.0,78,-99.99,,,0.00,Acu-Link.com,2013-02-09 08:26:00,
2013-02-09 03:41:00,31.3,25.3,29.93,NW,315,5.8,-999.0,78,-99.99,,,0.00,Acu-Link.com,2013-02-09 08:41:00,
2013-02-09 03:57:00,31.1,25.1,29.94,SE,135,3.2,-999.0,78,-99.99,,,0.00,Acu-Link.com,2013-02-09 08:57:00,
2013-02-09 04:12:00,30.9,25.2,29.95,South,180,3.7,-999.0,79,-99.99,,,0.00,Acu-Link.com,2013-02-09 09:12:00,
2013-02-09 04:27:00,30.9,25.2,29.95,South,180,3.2,-999.0,79,-99.99,,,0.00,Acu-Link.com,2013-02-09 09:27:00,
2013-02-09 04:44:00,30.9,25.2,29.95,WSW,247,3.7,-999.0,79,-99.99,,,0.00,Acu-Link.com,2013-02-09 09:44:00,
2013-02-09 05:07:00,30.7,25.0,29.98,NE,45,3.2,-999.0,79,-99.99,,,0.00,Acu-Link.com,2013-02-09 10:07:00,
2013-02-09 05:24:00,30.4,24.7,29.98,SSE,157,1.7,-999.0,79,-99.99,,,0.00,Acu-Link.com,2013-02-09 10:24:00,
2013-02-09 05:40:00,30.4,24.7,29.99,ESE,112,3.2,-999.0,79,-99.99,,,0.00,Acu-Link.com,2013-02-09 10:40:00,
2013-02-09 06:06:00,29.8,24.1,30.00,West,270,5.8,-999.0,79,-99.99,,,0.00,Acu-Link.com,2013-02-09 11:06:00,
2013-02-09 06:26:00,29.1,23.7,30.01,WSW,247,2.7,-999.0,80,-99.99,,,0.00,Acu-Link.com,2013-02-09 11:26:00,
2013-02-09 06:42:00,29.1,24.3,30.02,South,180,2.7,-999.0,82,-99.99,,,0.00,Acu-Link.com,2013-02-09 11:42:00,
2013-02-09 06:58:00,29.3,23.9,30.03,South,180,4.7,-999.0,80,-99.99,,,0.00,Acu-Link.com,2013-02-09 11:58:00,
2013-02-09 07:25:00,29.1,24.0,30.03,WNW,292,2.2,-999.0,81,-99.99,,,0.00,Acu-Link.com,2013-02-09 12:25:00,
2013-02-09 07:41:00,28.9,23.8,30.04,NNW,337,1.7,-999.0,81,-99.99,,,0.00,Acu-Link.com,2013-02-09 12:41:00,
2013-02-09 07:56:00,29.5,24.1,30.04,NNW,337,1.7,-999.0,80,-99.99,,,0.00,Acu-Link.com,2013-02-09 12:56:00,
2013-02-09 08:12:00,29.8,23.8,30.05,NW,315,4.2,-999.0,78,-99.99,,,0.00,Acu-Link.com,2013-02-09 13:12:00,
2013-02-09 08:27:00,30.0,24.0,30.05,NW,315,3.2,-999.0,78,-99.99,,,0.00,Acu-Link.com,2013-02-09 13:27:00,
2013-02-09 08:42:00,30.7,23.7,30.06,SE,135,4.7,-999.0,75,-99.99,,,0.00,Acu-Link.com,2013-02-09 13:42:00,
2013-02-09 08:57:00,31.5,23.9,30.05,NW,315,4.2,-999.0,73,-99.99,,,0.00,Acu-Link.com,2013-02-09 13:57:00,
2013-02-09 09:12:00,32.4,23.7,30.05,ESE,112,1.7,-999.0,70,-99.99,,,0.00,Acu-Link.com,2013-02-09 14:12:00,
2013-02-09 09:27:00,33.3,23.2,30.05,West,270,1.7,-999.0,66,-99.99,,,0.00,Acu-Link.com,2013-02-09 14:27:00,
2013-02-09 09:43:00,34.0,23.1,30.06,WNW,292,5.3,-999.0,64,-99.99,,,0.00,Acu-Link.com,2013-02-09 14:43:00,
2013-02-09 09:58:00,35.8,22.5,30.06,NW,315,2.7,-999.0,58,-99.99,,,0.00,Acu-Link.com,2013-02-09 14:58:00,
2013-02-09 10:13:00,37.6,22.0,30.07,North,0,1.7,-999.0,53,-99.99,,,0.00,Acu-Link.com,2013-02-09 15:13:00,
2013-02-09 10:28:00,39.0,22.4,30.06,ESE,112,4.2,-999.0,51,-99.99,,,0.00,Acu-Link.com,2013-02-09 15:28:00,
2013-02-09 10:43:00,41.9,23.7,30.07,WNW,292,3.2,-999.0,48,-99.99,,,0.00,Acu-Link.com,2013-02-09 15:43:00,
2013-02-09 10:58:00,42.3,21.4,30.07,WNW,292,3.7,-999.0,43,-99.99,,,0.00,Acu-Link.com,2013-02-09 15:58:00,
2013-02-09 11:13:00,43.7,20.4,30.08,East,90,3.7,-999.0,39,-99.99,,,0.00,Acu-Link.com,2013-02-09 16:13:00,
2013-02-09 11:28:00,46.0,21.2,30.07,WNW,292,1.1,-999.0,37,-99.99,,,0.00,Acu-Link.com,2013-02-09 16:28:00,
2013-02-09 11:43:00,47.7,21.4,30.07,NW,315,3.2,-999.0,35,-99.99,,,0.00,Acu-Link.com,2013-02-09 16:43:00,
2013-02-09 11:59:00,47.8,18.7,30.07,WNW,292,2.7,-999.0,31,-99.99,,,0.00,Acu-Link.com,2013-02-09 16:59:00,
2013-02-09 12:14:00,49.8,14.5,30.08,WNW,292,4.7,-999.0,24,-99.99,,,0.00,Acu-Link.com,2013-02-09 17:14:00,
2013-02-09 12:29:00,50.4,13.0,30.06,SW,225,2.2,-999.0,22,-99.99,,,0.00,Acu-Link.com,2013-02-09 17:29:00,
2013-02-09 12:44:00,50.2,14.8,30.05,NW,315,1.7,-999.0,24,-99.99,,,0.00,Acu-Link.com,2013-02-09 17:44:00,
2013-02-09 13:00:00,51.1,15.6,30.04,NNW,337,4.2,-999.0,24,-99.99,,,0.00,Acu-Link.com,2013-02-09 18:00:00,
2013-02-09 13:15:00,53.2,13.2,30.03,ESE,112,0.0,-999.0,20,-99.99,,,0.00,Acu-Link.com,2013-02-09 18:15:00,
2013-02-09 13:31:00,52.2,12.4,30.03,West,270,2.2,-999.0,20,-99.99,,,0.00,Acu-Link.com,2013-02-09 18:31:00,
2013-02-09 13:47:00,55.9,16.6,30.02,SE,135,2.2,-999.0,21,-99.99,,,0.00,Acu-Link.com,2013-02-09 18:47:00,
2013-02-09 14:02:00,55.6,11.5,30.02,South,180,3.7,-999.0,17,-99.99,,,0.00,Acu-Link.com,2013-02-09 19:02:00,
2013-02-09 14:17:00,54.0,15.0,30.01,NE,45,1.7,-999.0,21,-99.99,,,0.00,Acu-Link.com,2013-02-09 19:17:00,
2013-02-09 14:37:00,54.9,13.4,30.00,East,90,2.2,-999.0,19,-99.99,,,0.00,Acu-Link.com,2013-02-09 19:37:00,
2013-02-09 14:53:00,55.9,11.7,30.00,NNW,337,3.7,-999.0,17,-99.99,,,0.00,Acu-Link.com,2013-02-09 19:53:00,
2013-02-09 15:09:00,55.8,11.7,29.99,NE,45,1.1,-999.0,17,-99.99,,,0.00,Acu-Link.com,2013-02-09 20:09:00,
2013-02-09 15:25:00,57.4,10.2,29.98,SE,135,1.1,-999.0,15,-99.99,,,0.00,Acu-Link.com,2013-02-09 20:25:00,
2013-02-09 15:40:00,55.4,12.6,29.98,ESE,112,3.2,-999.0,18,-99.99,,,0.00,Acu-Link.com,2013-02-09 20:40:00,
2013-02-09 15:55:00,55.2,12.5,29.98,East,90,2.7,-999.0,18,-99.99,,,0.00,Acu-Link.com,2013-02-09 20:55:00,
2013-02-09 16:10:00,56.1,10.5,29.98,ESE,112,0.0,-999.0,16,-99.99,,,0.00,Acu-Link.com,2013-02-09 21:10:00,
2013-02-09 16:28:00,56.7,11.0,29.99,SE,135,2.7,-999.0,16,-99.99,,,0.00,Acu-Link.com,2013-02-09 21:28:00,
2013-02-09 16:43:00,55.6,11.5,29.99,ESE,112,0.0,-999.0,17,-99.99,,,0.00,Acu-Link.com,2013-02-09 21:43:00,
2013-02-09 16:58:00,56.1,15.6,29.98,NNE,22,0.0,-999.0,20,-99.99,,,0.00,Acu-Link.com,2013-02-09 21:58:00,
2013-02-09 17:38:00,54.1,10.3,29.98,West,270,0.0,-999.0,17,-99.99,,,0.00,Acu-Link.com,2013-02-09 22:38:00,
2013-02-09 17:57:00,54.3,11.7,30.00,ESE,112,0.0,-999.0,18,-99.99,,,0.00,Acu-Link.com,2013-02-09 22:57:00,
2013-02-09 18:13:00,50.5,21.0,30.00,East,90,0.0,-999.0,31,-99.99,,,0.00,Acu-Link.com,2013-02-09 23:13:00,
2013-02-09 18:28:00,47.3,21.7,30.01,ESE,112,0.0,-999.0,36,-99.99,,,0.00,Acu-Link.com,2013-02-09 23:28:00,
2013-02-09 18:43:00,46.9,19.3,30.02,East,90,0.0,-999.0,33,-99.99,,,0.00,Acu-Link.com,2013-02-09 23:43:00,
2013-02-09 18:58:00,46.2,20.7,30.01,NE,45,0.0,-999.0,36,-99.99,,,0.00,Acu-Link.com,2013-02-09 23:58:00,
2013-02-09 19:13:00,46.0,20.6,30.02,ENE,67,0.0,-999.0,36,-99.99,,,0.00,Acu-Link.com,2013-02-10 00:13:00,
2013-02-09 19:28:00,44.4,20.4,30.04,NW,315,0.0,-999.0,38,-99.99,,,0.00,Acu-Link.com,2013-02-10 00:28:00,
2013-02-09 19:44:00,43.3,21.2,30.04,NNW,337,0.0,-999.0,41,-99.99,,,0.00,Acu-Link.com,2013-02-10 00:44:00,
2013-02-09 19:59:00,41.4,25.6,30.05,West,270,0.0,-999.0,53,-99.99,,,0.00,Acu-Link.com,2013-02-10 00:59:00,
2013-02-09 20:14:00,40.1,24.4,30.05,NNE,22,0.0,-999.0,53,-99.99,,,0.00,Acu-Link.com,2013-02-10 01:14:00,
2013-02-09 20:29:00,39.4,25.5,30.06,NW,315,0.0,-999.0,57,-99.99,,,0.00,Acu-Link.com,2013-02-10 01:29:00,
2013-02-09 20:44:00,38.3,26.8,30.06,ESE,112,0.0,-999.0,63,-99.99,,,0.00,Acu-Link.com,2013-02-10 01:44:00,
2013-02-09 21:00:00,37.8,27.1,30.06,ESE,112,0.0,-999.0,65,-99.99,,,0.00,Acu-Link.com,2013-02-10 02:00:00,
2013-02-09 21:41:00,35.2,25.7,30.07,ESE,112,0.0,-999.0,68,-99.99,,,0.00,Acu-Link.com,2013-02-10 02:41:00,
2013-02-09 21:56:00,34.5,25.0,30.06,ESE,112,0.0,-999.0,68,-99.99,,,0.00,Acu-Link.com,2013-02-10 02:56:00,
2013-02-09 22:11:00,34.0,25.3,30.07,ESE,112,0.0,-999.0,70,-99.99,,,0.00,Acu-Link.com,2013-02-10 03:11:00,
2013-02-09 22:26:00,33.4,25.4,30.07,South,180,0.0,-999.0,72,-99.99,,,0.00,Acu-Link.com,2013-02-10 03:26:00,
2013-02-09 22:41:00,32.7,25.0,30.07,South,180,0.0,-999.0,73,-99.99,,,0.00,Acu-Link.com,2013-02-10 03:41:00,
2013-02-09 22:57:00,32.0,24.7,30.07,WNW,292,0.0,-999.0,74,-99.99,,,0.00,Acu-Link.com,2013-02-10 03:57:00,
2013-02-09 23:12:00,32.5,25.2,30.07,ESE,112,0.0,-999.0,74,-99.99,,,0.00,Acu-Link.com,2013-02-10 04:12:00,
2013-02-09 23:31:00,32.4,27.2,30.07,ESE,112,0.0,-999.0,81,-99.99,,,0.00,Acu-Link.com,2013-02-10 04:31:00,
2013-02-09 23:47:00,31.6,25.8,30.08,SSE,157,0.0,-999.0,79,-99.99,,,0.00,Acu-Link.com,2013-02-10 04:47:00,